createdAt,value
2019-03-02T00:00:14.400Z,0
2019-03-02T00:01:14.974Z,0
2019-03-02T00:02:15.547Z,0
2019-03-02T00:03:16.122Z,0
2019-03-02T00:04:16.696Z,0
2019-03-02T00:05:17.268Z,0
2019-03-02T00:06:17.839Z,0
2019-03-02T00:07:18.414Z,0
2019-03-02T00:08:21.888Z,0
2019-03-02T00:09:20.599Z,0
2019-03-02T00:10:21.175Z,0
2019-03-02T00:11:21.746Z,0
2019-03-02T00:12:22.322Z,0
2019-03-02T00:13:22.894Z,0
2019-03-02T00:14:23.518Z,0
2019-03-02T00:15:26.899Z,0
2019-03-02T00:16:25.709Z,0
2019-03-02T00:17:26.283Z,0
2019-03-02T00:18:29.104Z,0
2019-03-02T00:19:27.468Z,0
2019-03-02T00:20:28.039Z,0
2019-03-02T00:21:31.362Z,0
2019-03-02T00:22:30.183Z,0
2019-03-02T00:23:30.757Z,0
2019-03-02T00:24:31.334Z,0
2019-03-02T00:25:34.127Z,0
2019-03-02T00:26:33.525Z,0
2019-03-02T00:27:34.100Z,0
2019-03-02T00:28:35.582Z,0
2019-03-02T00:29:36.212Z,0
2019-03-02T00:30:36.839Z,0
2019-03-02T00:31:37.404Z,0
2019-03-02T00:32:41.480Z,0
2019-03-02T00:33:39.743Z,0
2019-03-02T00:34:40.316Z,0
2019-03-02T00:35:43.689Z,0
2019-03-02T00:36:42.555Z,0
2019-03-02T00:37:43.143Z,0
2019-03-02T00:38:44.321Z,0
2019-03-02T00:39:44.930Z,0
2019-03-02T00:40:45.503Z,0
2019-03-02T00:41:46.124Z,0
2019-03-02T00:42:48.819Z,0
2019-03-02T00:43:48.266Z,0
2019-03-02T00:44:48.838Z,0
2019-03-02T00:45:49.830Z,0
2019-03-02T00:46:50.373Z,0
2019-03-02T00:47:51.001Z,0
2019-03-02T00:48:51.571Z,0
2019-03-02T00:49:52.143Z,0
2019-03-02T00:50:52.719Z,0
2019-03-02T00:51:53.291Z,0
2019-03-02T00:52:55.719Z,0
2019-03-02T00:53:55.431Z,0
2019-03-02T00:54:58.415Z,0
2019-03-02T00:55:57.570Z,0
2019-03-02T00:56:58.144Z,0
2019-03-02T00:57:58.865Z,0
2019-03-02T00:59:00.509Z,0
2019-03-02T01:00:01.005Z,0
2019-03-02T01:01:01.578Z,0
2019-03-02T01:02:04.425Z,0
2019-03-02T01:03:03.721Z,0
2019-03-02T01:04:04.344Z,0
2019-03-02T01:05:04.923Z,0
2019-03-02T01:06:08.904Z,0
2019-03-02T01:07:07.058Z,0
2019-03-02T01:08:07.636Z,0
2019-03-02T01:09:11.634Z,0
2019-03-02T01:10:09.772Z,0
2019-03-02T01:11:10.396Z,0
2019-03-02T01:12:10.969Z,0
2019-03-02T01:13:11.546Z,0
2019-03-02T01:14:12.120Z,0
2019-03-02T01:15:12.695Z,0
2019-03-02T01:16:13.269Z,0
2019-03-02T01:17:13.842Z,0
2019-03-02T01:18:14.418Z,0
2019-03-02T01:19:17.639Z,0
2019-03-02T01:20:16.559Z,0
2019-03-02T01:21:17.174Z,0
2019-03-02T01:22:17.760Z,0
2019-03-02T01:23:18.322Z,0
2019-03-02T01:24:18.896Z,0
2019-03-02T01:25:19.468Z,0
2019-03-02T01:26:20.607Z,0
2019-03-02T01:27:21.608Z,0
2019-03-02T01:28:22.182Z,0
2019-03-02T01:29:22.796Z,0
2019-03-02T01:30:26.643Z,0
2019-03-02T01:31:24.024Z,0
2019-03-02T01:32:24.595Z,0
2019-03-02T01:33:28.515Z,0
2019-03-02T01:34:26.782Z,0
2019-03-02T01:35:27.358Z,0
2019-03-02T01:36:28.666Z,0
2019-03-02T01:37:29.498Z,0
2019-03-02T01:38:30.073Z,0
2019-03-02T01:39:30.647Z,0
2019-03-02T01:40:31.273Z,0
2019-03-02T01:41:31.846Z,0
2019-03-02T01:42:32.417Z,0
2019-03-02T01:43:33.142Z,0
2019-03-02T01:44:33.714Z,0
2019-03-02T01:45:34.286Z,0
2019-03-02T01:46:37.508Z,0
2019-03-02T01:47:35.471Z,0
2019-03-02T01:48:36.043Z,0
2019-03-02T01:49:37.677Z,0
2019-03-02T01:50:38.188Z,0
2019-03-02T01:51:38.759Z,0
2019-03-02T01:52:39.335Z,0
2019-03-02T01:53:41.824Z,0
2019-03-02T01:54:41.522Z,0
2019-03-02T01:55:42.097Z,0
2019-03-02T01:56:42.732Z,0
2019-03-02T01:57:43.251Z,0
2019-03-02T01:58:43.824Z,0
2019-03-02T01:59:44.398Z,0
2019-03-02T02:00:45.666Z,0
2019-03-02T02:01:46.585Z,0
2019-03-02T02:02:47.160Z,0
2019-03-02T02:03:48.025Z,0
2019-03-02T02:04:48.343Z,0
2019-03-02T02:05:48.916Z,0
2019-03-02T02:06:49.489Z,0
2019-03-02T02:07:53.794Z,0
2019-03-02T02:08:51.680Z,0
2019-03-02T02:09:52.255Z,0
2019-03-02T02:10:52.828Z,0
2019-03-02T02:11:54.242Z,0
2019-03-02T02:12:54.813Z,0
2019-03-02T02:13:55.386Z,0
2019-03-02T02:14:56.009Z,0
2019-03-02T02:15:56.584Z,0
2019-03-02T02:16:57.161Z,0
2019-03-02T02:17:57.733Z,0
2019-03-02T02:18:59.280Z,0
2019-03-02T02:19:59.871Z,0
2019-03-02T02:21:00.493Z,0
2019-03-02T02:22:02.187Z,0
2019-03-02T02:23:01.678Z,0
2019-03-02T02:24:02.249Z,0
2019-03-02T02:25:02.822Z,0
2019-03-02T02:26:03.394Z,0
2019-03-02T02:27:03.983Z,0
2019-03-02T02:28:04.579Z,0
2019-03-02T02:29:08.275Z,0
2019-03-02T02:30:06.768Z,0
2019-03-02T02:31:07.989Z,0
2019-03-02T02:32:08.663Z,0
2019-03-02T02:33:09.235Z,0
2019-03-02T02:34:09.809Z,0
2019-03-02T02:35:10.383Z,0
2019-03-02T02:36:14.138Z,0
2019-03-02T02:37:12.564Z,0
2019-03-02T02:38:16.113Z,0
2019-03-02T02:39:14.709Z,0
2019-03-02T02:40:15.279Z,0
2019-03-02T02:41:22.404Z,0
2019-03-02T02:42:17.618Z,0
2019-03-02T02:43:21.063Z,0
2019-03-02T02:44:19.759Z,0
2019-03-02T02:45:20.332Z,0
2019-03-02T02:46:20.913Z,0
2019-03-02T02:47:21.480Z,0
2019-03-02T02:48:26.287Z,0
2019-03-02T02:49:23.904Z,0
2019-03-02T02:50:29.548Z,0
2019-03-02T02:51:26.072Z,0
2019-03-02T02:52:28.258Z,0
2019-03-02T02:53:28.270Z,0
2019-03-02T02:54:28.879Z,0
2019-03-02T02:55:29.453Z,0
2019-03-02T02:56:30.026Z,0
2019-03-02T02:57:33.552Z,0
2019-03-02T02:58:32.214Z,0
2019-03-02T02:59:34.016Z,0
2019-03-02T03:00:35.719Z,0
2019-03-02T03:01:35.920Z,0
2019-03-02T03:02:36.492Z,0
2019-03-02T03:03:37.065Z,0
2019-03-02T03:04:38.188Z,0
2019-03-02T03:05:38.916Z,0
2019-03-02T03:06:39.487Z,0
2019-03-02T03:07:40.062Z,0
2019-03-02T03:08:40.629Z,0
2019-03-02T03:09:45.437Z,0
2019-03-02T03:10:42.769Z,0
2019-03-02T03:11:44.390Z,0
2019-03-02T03:12:44.965Z,0
2019-03-02T03:13:45.540Z,0
2019-03-02T03:14:46.149Z,0
2019-03-02T03:15:46.770Z,0
2019-03-02T03:16:49.382Z,0
2019-03-02T03:17:48.914Z,0
2019-03-02T03:18:52.168Z,0
2019-03-02T03:19:51.146Z,0
2019-03-02T03:20:51.757Z,0
2019-03-02T03:21:52.427Z,0
2019-03-02T03:22:52.997Z,0
2019-03-02T03:23:54.235Z,0
2019-03-02T03:24:54.805Z,0
2019-03-02T03:25:57.080Z,0
2019-03-02T03:26:57.030Z,0
2019-03-02T03:27:57.610Z,0
2019-03-02T03:28:58.178Z,0
2019-03-02T03:29:58.788Z,0
2019-03-02T03:30:59.364Z,0
2019-03-02T03:32:07.770Z,0
2019-03-02T03:33:01.551Z,0
2019-03-02T03:34:07.169Z,0
2019-03-02T03:35:15.370Z,0
2019-03-02T03:36:09.309Z,0
2019-03-02T03:37:13.067Z,0
2019-03-02T03:38:11.447Z,0
2019-03-02T03:39:12.996Z,0
2019-03-02T03:40:13.587Z,0
2019-03-02T03:41:14.317Z,0
2019-03-02T03:42:22.404Z,0
2019-03-02T03:43:16.650Z,0
2019-03-02T03:44:25.608Z,0
2019-03-02T03:45:17.840Z,0
2019-03-02T03:46:22.350Z,0
2019-03-02T03:47:19.977Z,0
2019-03-02T03:48:20.549Z,0
2019-03-02T03:49:21.123Z,0
2019-03-02T03:50:21.700Z,0
2019-03-02T03:51:26.267Z,0
2019-03-02T03:52:23.836Z,0
2019-03-02T03:53:26.621Z,0
2019-03-02T03:54:25.984Z,0
2019-03-02T03:55:27.458Z,0
2019-03-02T03:56:28.117Z,0
2019-03-02T03:57:28.742Z,0
2019-03-02T03:58:29.317Z,0
2019-03-02T03:59:29.892Z,0
2019-03-02T04:00:34.359Z,0
2019-03-02T04:01:32.030Z,0
2019-03-02T04:02:35.476Z,0
2019-03-02T04:03:34.171Z,0
2019-03-02T04:04:34.743Z,0
2019-03-02T04:05:35.323Z,0
2019-03-02T04:06:35.931Z,0
2019-03-02T04:07:36.504Z,0
2019-03-02T04:08:37.076Z,0
2019-03-02T04:09:37.699Z,0
2019-03-02T04:10:38.271Z,0
2019-03-02T04:11:42.187Z,0
2019-03-02T04:12:40.461Z,0
2019-03-02T04:13:44.893Z,0
2019-03-02T04:14:41.653Z,0
2019-03-02T04:15:43.482Z,0
2019-03-02T04:16:43.836Z,0
2019-03-02T04:17:44.411Z,0
2019-03-02T04:18:44.984Z,0
2019-03-02T04:19:45.556Z,0
2019-03-02T04:20:49.639Z,0
2019-03-02T04:21:47.717Z,0
2019-03-02T04:22:48.319Z,0
2019-03-02T04:23:48.893Z,0
2019-03-02T04:24:49.465Z,0
2019-03-02T04:25:52.119Z,0
2019-03-02T04:26:51.655Z,0
2019-03-02T04:27:54.251Z,0
2019-03-02T04:28:53.841Z,0
2019-03-02T04:29:55.557Z,0
2019-03-02T04:30:55.981Z,0
2019-03-02T04:31:56.556Z,0
2019-03-02T04:32:57.126Z,0
2019-03-02T04:33:57.699Z,0
2019-03-02T04:34:58.826Z,0
2019-03-02T04:35:59.386Z,0
2019-03-02T04:37:00.012Z,0
2019-03-02T04:38:01.979Z,0
2019-03-02T04:39:01.201Z,0
2019-03-02T04:40:01.776Z,0
2019-03-02T04:41:04.084Z,0
2019-03-02T04:42:03.962Z,0
2019-03-02T04:43:04.531Z,0
2019-03-02T04:44:05.101Z,0
2019-03-02T04:45:05.952Z,0
2019-03-02T04:46:06.284Z,0
2019-03-02T04:47:06.859Z,0
2019-03-02T04:48:07.432Z,0
2019-03-02T04:49:10.960Z,0
2019-03-02T04:50:09.622Z,0
2019-03-02T04:51:10.248Z,0
2019-03-02T04:52:11.604Z,0
2019-03-02T04:53:12.387Z,0
2019-03-02T04:54:13.011Z,0
2019-03-02T04:55:14.727Z,0
2019-03-02T04:56:15.149Z,0
2019-03-02T04:57:15.725Z,0
2019-03-02T04:58:16.298Z,0
2019-03-02T04:59:18.647Z,0
2019-03-02T05:00:18.489Z,0
2019-03-02T05:01:19.063Z,0
2019-03-02T05:02:20.456Z,0
2019-03-02T05:03:21.030Z,0
2019-03-02T05:04:21.603Z,0
2019-03-02T05:05:22.175Z,0
2019-03-02T05:06:22.747Z,0
2019-03-02T05:07:26.790Z,0
2019-03-02T05:08:24.886Z,0
2019-03-02T05:09:25.511Z,0
2019-03-02T05:10:28.727Z,0
2019-03-02T05:11:26.695Z,0
2019-03-02T05:12:27.319Z,0
2019-03-02T05:13:28.293Z,0
2019-03-02T05:14:29.459Z,0
2019-03-02T05:15:30.031Z,0
2019-03-02T05:16:30.606Z,0
2019-03-02T05:17:31.226Z,0
2019-03-02T05:18:31.799Z,0
2019-03-02T05:19:32.372Z,0
2019-03-02T05:20:32.945Z,0
2019-03-02T05:21:33.518Z,0
2019-03-02T05:22:34.091Z,0
2019-03-02T05:23:34.662Z,0
2019-03-02T05:24:35.233Z,0
2019-03-02T05:25:35.806Z,0
2019-03-02T05:26:36.423Z,0
2019-03-02T05:27:36.999Z,0
2019-03-02T05:28:39.691Z,0
2019-03-02T05:29:39.133Z,0
2019-03-02T05:30:39.709Z,0
2019-03-02T05:31:40.941Z,0
2019-03-02T05:32:41.898Z,0
2019-03-02T05:33:42.470Z,0
2019-03-02T05:34:43.062Z,0
2019-03-02T05:35:43.617Z,0
2019-03-02T05:36:44.191Z,0
2019-03-02T05:37:44.766Z,0
2019-03-02T05:38:45.339Z,0
2019-03-02T05:39:45.915Z,0
2019-03-02T05:40:46.487Z,0
2019-03-02T05:41:47.059Z,0
2019-03-02T05:42:51.551Z,0
2019-03-02T05:43:49.201Z,0
2019-03-02T05:44:49.784Z,0
2019-03-02T05:45:50.350Z,0
2019-03-02T05:46:50.924Z,0
2019-03-02T05:47:51.548Z,0
2019-03-02T05:48:52.171Z,0
2019-03-02T05:49:54.683Z,0
2019-03-02T05:50:54.312Z,0
2019-03-02T05:51:54.885Z,0
2019-03-02T05:52:55.459Z,0
2019-03-02T05:53:56.031Z,0
2019-03-02T05:54:56.602Z,0
2019-03-02T05:55:57.171Z,0
2019-03-02T05:57:00.630Z,0
2019-03-02T05:57:58.405Z,0
2019-03-02T05:58:58.977Z,0
2019-03-02T06:00:01.854Z,0
2019-03-02T06:01:01.117Z,0
2019-03-02T06:02:01.689Z,0
2019-03-02T06:03:02.263Z,0
2019-03-02T06:04:02.837Z,0
2019-03-02T06:05:03.459Z,0
2019-03-02T06:06:04.033Z,0
2019-03-02T06:07:04.607Z,0
2019-03-02T06:08:05.177Z,0
2019-03-02T06:09:08.382Z,0
2019-03-02T06:10:07.366Z,0
2019-03-02T06:11:07.942Z,0
2019-03-02T06:12:11.890Z,0
2019-03-02T06:13:09.129Z,0
2019-03-02T06:14:09.699Z,0
2019-03-02T06:15:10.275Z,0
2019-03-02T06:16:10.847Z,0
2019-03-02T06:17:11.424Z,0
2019-03-02T06:18:11.991Z,0
2019-03-02T06:19:12.565Z,0
2019-03-02T06:20:13.137Z,0
2019-03-02T06:21:13.715Z,0
2019-03-02T06:22:17.676Z,0
2019-03-02T06:23:15.904Z,0
2019-03-02T06:24:16.480Z,0
2019-03-02T06:25:20.873Z,0
2019-03-02T06:26:17.666Z,0
2019-03-02T06:27:18.237Z,0
2019-03-02T06:28:19.689Z,0
2019-03-02T06:29:20.377Z,0
2019-03-02T06:30:20.999Z,0
2019-03-02T06:31:21.641Z,0
2019-03-02T06:32:22.295Z,0
2019-03-02T06:33:22.867Z,0
2019-03-02T06:34:23.441Z,0
2019-03-02T06:35:24.013Z,0
2019-03-02T06:36:24.586Z,0
2019-03-02T06:37:25.159Z,0
2019-03-02T06:38:28.902Z,0
2019-03-02T06:39:27.306Z,0
2019-03-02T06:40:27.871Z,0
2019-03-02T06:41:29.819Z,0
2019-03-02T06:42:30.066Z,0
2019-03-02T06:43:30.638Z,0
2019-03-02T06:44:34.086Z,0
2019-03-02T06:45:32.777Z,0
2019-03-02T06:46:33.401Z,0
2019-03-02T06:47:34.318Z,0
2019-03-02T06:48:34.880Z,0
2019-03-02T06:49:35.506Z,0
2019-03-02T06:50:36.783Z,0
2019-03-02T06:51:37.350Z,0
2019-03-02T06:52:37.925Z,0
2019-03-02T06:53:38.498Z,0
2019-03-02T06:54:39.072Z,0
2019-03-02T06:55:39.645Z,0
2019-03-02T06:56:40.220Z,0
2019-03-02T06:57:40.794Z,0
2019-03-02T06:58:41.366Z,0
2019-03-02T06:59:41.939Z,0
2019-03-02T07:00:45.657Z,0
2019-03-02T07:01:44.792Z,0
2019-03-02T07:02:45.342Z,0
2019-03-02T07:03:46.739Z,0
2019-03-02T07:04:47.344Z,0
2019-03-02T07:05:47.918Z,0
2019-03-02T07:06:48.487Z,0
2019-03-02T07:07:49.059Z,0
2019-03-02T07:08:49.681Z,0
2019-03-02T07:09:50.254Z,0
2019-03-02T07:10:50.878Z,0
2019-03-02T07:11:51.452Z,0
2019-03-02T07:12:52.024Z,0
2019-03-02T07:13:53.544Z,0
2019-03-02T07:14:54.166Z,0
2019-03-02T07:15:54.734Z,0
2019-03-02T07:16:55.952Z,0
2019-03-02T07:17:56.698Z,0
2019-03-02T07:18:57.271Z,0
2019-03-02T07:19:57.899Z,0
2019-03-02T07:20:59.599Z,0
2019-03-02T07:22:00.079Z,0
2019-03-02T07:23:00.658Z,0
2019-03-02T07:24:01.226Z,0
2019-03-02T07:25:04.994Z,0
2019-03-02T07:26:03.367Z,0
2019-03-02T07:27:03.953Z,0
2019-03-02T07:28:05.876Z,0
2019-03-02T07:29:06.128Z,0
2019-03-02T07:30:06.702Z,0
2019-03-02T07:31:07.276Z,0
2019-03-02T07:32:07.849Z,0
2019-03-02T07:33:08.423Z,0
2019-03-02T07:34:09.802Z,0
2019-03-02T07:35:09.606Z,0
2019-03-02T07:36:10.175Z,0
2019-03-02T07:37:10.747Z,0
2019-03-02T07:38:11.318Z,0
2019-03-02T07:39:11.890Z,0
2019-03-02T07:40:12.463Z,0
2019-03-02T07:41:13.034Z,0
2019-03-02T07:42:13.609Z,0
2019-03-02T07:43:14.181Z,0
2019-03-02T07:44:14.751Z,0
2019-03-02T07:45:15.323Z,0
2019-03-02T07:46:15.946Z,0
2019-03-02T07:47:16.517Z,0
2019-03-02T07:48:17.090Z,0
2019-03-02T07:49:17.665Z,0
2019-03-02T07:50:21.775Z,0
2019-03-02T07:51:19.852Z,0
2019-03-02T07:52:20.426Z,0
2019-03-02T07:53:20.998Z,0
2019-03-02T07:54:21.570Z,0
2019-03-02T07:55:22.568Z,0
2019-03-02T07:56:22.761Z,0
2019-03-02T07:57:23.333Z,0
2019-03-02T07:58:23.903Z,0
2019-03-02T07:59:26.478Z,0
2019-03-02T08:00:26.041Z,0
2019-03-02T08:01:26.613Z,0
2019-03-02T08:02:29.616Z,0
2019-03-02T08:03:28.756Z,0
2019-03-02T08:04:29.327Z,0
2019-03-02T08:05:29.900Z,0
2019-03-02T08:06:30.473Z,0
2019-03-02T08:07:34.038Z,0
2019-03-02T08:08:32.663Z,0
2019-03-02T08:09:33.235Z,0
2019-03-02T08:10:34.873Z,0
2019-03-02T08:11:35.377Z,0
2019-03-02T08:12:35.998Z,0
2019-03-02T08:13:37.693Z,0
2019-03-02T08:14:38.135Z,0
2019-03-02T08:15:38.709Z,0
2019-03-02T08:16:39.281Z,0
2019-03-02T08:17:39.884Z,0
2019-03-02T08:18:40.466Z,0
2019-03-02T08:19:41.042Z,0
2019-03-02T08:20:41.615Z,0
2019-03-02T08:21:42.188Z,0
2019-03-02T08:22:45.998Z,0
2019-03-02T08:23:44.326Z,0
2019-03-02T08:24:44.900Z,0
2019-03-02T08:25:45.478Z,0
2019-03-02T08:26:46.048Z,0
2019-03-02T08:27:46.619Z,0
2019-03-02T08:28:47.194Z,0
2019-03-02T08:29:47.767Z,0
2019-03-02T08:30:48.342Z,0
2019-03-02T08:31:48.915Z,0
2019-03-02T08:32:49.489Z,0
2019-03-02T08:33:50.062Z,0
2019-03-02T08:34:50.685Z,0
2019-03-02T08:35:51.259Z,0
2019-03-02T08:36:54.266Z,0
2019-03-02T08:37:53.396Z,0
2019-03-02T08:38:54.018Z,0
2019-03-02T08:39:54.589Z,0
2019-03-02T08:40:56.343Z,0
2019-03-02T08:41:56.776Z,0
2019-03-02T08:42:57.349Z,0
2019-03-02T08:43:57.918Z,0
2019-03-02T08:44:58.490Z,0
2019-03-02T08:45:59.062Z,0
2019-03-02T08:46:59.685Z,0
2019-03-02T08:48:00.258Z,0
2019-03-02T08:49:02.896Z,0
2019-03-02T08:50:02.396Z,0
2019-03-02T08:51:02.967Z,0
2019-03-02T08:52:03.543Z,0
2019-03-02T08:53:04.117Z,0
2019-03-02T08:54:04.733Z,0
2019-03-02T08:55:05.397Z,0
2019-03-02T08:56:09.768Z,0
2019-03-02T08:57:07.536Z,0
2019-03-02T08:58:08.109Z,0
2019-03-02T08:59:08.683Z,0
2019-03-02T09:00:09.256Z,0
2019-03-02T09:01:09.879Z,0
2019-03-02T09:02:10.456Z,0
2019-03-02T09:03:11.027Z,0
2019-03-02T09:04:14.095Z,0
2019-03-02T09:05:13.221Z,0
2019-03-02T09:06:13.794Z,0
2019-03-02T09:07:14.368Z,0
2019-03-02T09:08:14.939Z,0
2019-03-02T09:09:15.512Z,0
2019-03-02T09:10:16.086Z,0
2019-03-02T09:11:16.665Z,0
2019-03-02T09:12:17.862Z,0
2019-03-02T09:13:18.798Z,0
2019-03-02T09:14:19.373Z,0
2019-03-02T09:15:22.243Z,0
2019-03-02T09:16:21.510Z,0
2019-03-02T09:17:22.081Z,0
2019-03-02T09:18:22.653Z,0
2019-03-02T09:19:24.260Z,0
2019-03-02T09:20:24.818Z,0
2019-03-02T09:21:25.389Z,0
2019-03-02T09:22:26.014Z,0
2019-03-02T09:23:26.584Z,0
2019-03-02T09:24:27.163Z,0
2019-03-02T09:25:29.307Z,0
2019-03-02T09:26:29.495Z,0
2019-03-02T09:27:30.100Z,0
2019-03-02T09:28:30.640Z,0
2019-03-02T09:29:31.210Z,0
2019-03-02T09:30:31.784Z,0
2019-03-02T09:31:35.054Z,0
2019-03-02T09:32:33.923Z,0
2019-03-02T09:33:34.538Z,0
2019-03-02T09:34:37.051Z,0
2019-03-02T09:35:36.678Z,0
2019-03-02T09:36:37.291Z,0
2019-03-02T09:37:40.925Z,0
2019-03-02T09:38:39.428Z,0
2019-03-02T09:39:40.000Z,0
2019-03-02T09:40:40.623Z,0
2019-03-02T09:41:41.197Z,0
2019-03-02T09:42:41.771Z,0
2019-03-02T09:43:42.346Z,0
2019-03-02T09:44:42.965Z,0
2019-03-02T09:45:44.818Z,0
2019-03-02T09:46:45.105Z,0
2019-03-02T09:47:47.561Z,75
2019-03-02T09:48:47.256Z,70
2019-03-02T09:49:47.882Z,75
2019-03-02T09:50:48.467Z,75
2019-03-02T09:51:49.320Z,70
2019-03-02T09:52:49.902Z,70
2019-03-02T09:53:50.481Z,65
2019-03-02T09:54:51.056Z,60
2019-03-02T09:55:51.956Z,65
2019-03-02T09:56:53.209Z,65
2019-03-02T09:57:53.780Z,65
2019-03-02T09:58:57.819Z,65
2019-03-02T09:59:55.929Z,65
2019-03-02T10:00:56.822Z,70
2019-03-02T10:01:58.127Z,75
2019-03-02T10:02:58.705Z,75
2019-03-02T10:04:03.158Z,75
2019-03-02T10:05:00.853Z,75
2019-03-02T10:06:01.430Z,75
2019-03-02T10:07:03.276Z,70
2019-03-02T10:08:02.667Z,70
2019-03-02T10:09:03.243Z,70
2019-03-02T10:10:03.822Z,75
2019-03-02T10:11:06.102Z,75
2019-03-02T10:12:05.969Z,75
2019-03-02T10:13:08.176Z,75
2019-03-02T10:14:07.213Z,75
2019-03-02T10:15:07.788Z,80
2019-03-02T10:16:08.370Z,80
2019-03-02T10:17:08.946Z,80
2019-03-02T10:18:10.488Z,75
2019-03-02T10:19:11.096Z,65
2019-03-02T10:20:11.675Z,80
2019-03-02T10:21:12.253Z,80
2019-03-02T10:22:12.833Z,75
2019-03-02T10:23:13.410Z,75
2019-03-02T10:24:17.015Z,70
2019-03-02T10:25:15.561Z,80
2019-03-02T10:26:16.139Z,75
2019-03-02T10:27:17.242Z,70
2019-03-02T10:28:18.290Z,75
2019-03-02T10:29:18.867Z,75
2019-03-02T10:30:22.182Z,80
2019-03-02T10:31:21.013Z,85
2019-03-02T10:32:21.591Z,65
2019-03-02T10:33:22.173Z,70
2019-03-02T10:34:22.794Z,80
2019-03-02T10:35:23.419Z,65
2019-03-02T10:36:25.698Z,75
2019-03-02T10:37:25.621Z,80
2019-03-02T10:38:26.197Z,70
2019-03-02T10:39:29.128Z,75
2019-03-02T10:40:27.440Z,75
2019-03-02T10:41:28.019Z,80
2019-03-02T10:42:32.032Z,85
2019-03-02T10:43:30.169Z,70
2019-03-02T10:44:30.747Z,75
2019-03-02T10:45:31.327Z,70
2019-03-02T10:46:31.905Z,75
2019-03-02T10:47:32.527Z,75
2019-03-02T10:48:33.105Z,75
2019-03-02T10:49:33.684Z,65
2019-03-02T10:50:34.312Z,70
2019-03-02T10:51:37.527Z,80
2019-03-02T10:52:36.461Z,70
2019-03-02T10:53:37.042Z,75
2019-03-02T10:54:37.621Z,105
2019-03-02T10:55:38.198Z,90
2019-03-02T10:56:38.779Z,80
2019-03-02T10:57:39.358Z,90
2019-03-02T10:58:39.950Z,95
2019-03-02T10:59:40.516Z,115
2019-03-02T11:00:41.095Z,120
2019-03-02T11:01:43.587Z,145
2019-03-02T11:02:43.249Z,115
2019-03-02T11:03:43.828Z,195
2019-03-02T11:04:45.760Z,150
2019-03-02T11:05:46.021Z,290
2019-03-02T11:06:46.600Z,165
2019-03-02T11:07:48.930Z,155
2019-03-02T11:08:48.808Z,245
2019-03-02T11:09:49.427Z,225
2019-03-02T11:10:52.251Z,165
2019-03-02T11:11:51.581Z,300
2019-03-02T11:12:52.163Z,355
2019-03-02T11:13:55.341Z,235
2019-03-02T11:14:54.317Z,180
2019-03-02T11:15:54.899Z,185
2019-03-02T11:16:55.477Z,255
2019-03-02T11:17:58.779Z,165
2019-03-02T11:18:57.633Z,290
2019-03-02T11:19:58.212Z,175
2019-03-02T11:20:59.088Z,120
2019-03-02T11:22:00.372Z,250
2019-03-02T11:23:00.953Z,240
2019-03-02T11:24:01.584Z,380
2019-03-02T11:25:02.168Z,350
2019-03-02T11:26:02.750Z,210
2019-03-02T11:27:03.333Z,210
2019-03-02T11:28:03.966Z,360
2019-03-02T11:29:04.550Z,185
2019-03-02T11:30:05.137Z,335
2019-03-02T11:31:05.715Z,380
2019-03-02T11:32:06.350Z,240
2019-03-02T11:33:06.983Z,490
2019-03-02T11:34:07.566Z,320
2019-03-02T11:35:10.445Z,275
2019-03-02T11:36:10.661Z,320
2019-03-02T11:37:11.255Z,205
2019-03-02T11:38:11.837Z,170
2019-03-02T11:39:13.813Z,405
2019-03-02T11:40:13.998Z,260
2019-03-02T11:41:14.581Z,220
2019-03-02T11:42:15.169Z,410
2019-03-02T11:43:16.265Z,225
2019-03-02T11:44:17.326Z,185
2019-03-02T11:45:17.907Z,195
2019-03-02T11:46:18.541Z,220
2019-03-02T11:47:19.325Z,245
2019-03-02T11:48:19.912Z,215
2019-03-02T11:49:29.734Z,210
2019-03-02T11:50:22.070Z,235
2019-03-02T11:51:24.077Z,440
2019-03-02T11:52:24.331Z,285
2019-03-02T11:53:24.914Z,240
2019-03-02T11:54:28.815Z,250
2019-03-02T11:55:28.836Z,240
2019-03-02T11:56:28.695Z,225
2019-03-02T11:57:29.278Z,190
2019-03-02T11:58:33.226Z,165
2019-03-02T11:59:31.436Z,165
2019-03-02T12:00:37.846Z,185
2019-03-02T12:01:34.267Z,180
2019-03-02T12:02:35.173Z,160
2019-03-02T12:03:39.129Z,150
2019-03-02T12:04:37.182Z,140
2019-03-02T12:05:37.767Z,150
2019-03-02T12:06:40.964Z,155
2019-03-02T12:07:41.970Z,150
2019-03-02T12:08:41.502Z,145
2019-03-02T12:09:42.086Z,140
2019-03-02T12:10:42.667Z,140
2019-03-02T12:11:47.061Z,145
2019-03-02T12:12:44.825Z,140
2019-03-02T12:13:45.411Z,155
2019-03-02T12:14:46.434Z,200
2019-03-02T12:15:49.393Z,265
2019-03-02T12:16:49.147Z,265
2019-03-02T12:17:49.726Z,205
2019-03-02T12:18:51.094Z,175
2019-03-02T12:19:51.883Z,160
2019-03-02T12:20:52.463Z,170
2019-03-02T12:21:54.063Z,165
2019-03-02T12:22:54.619Z,165
2019-03-02T12:23:55.208Z,175
2019-03-02T12:24:58.367Z,195
2019-03-02T12:25:57.411Z,195
2019-03-02T12:26:57.993Z,210
2019-03-02T12:27:59.230Z,230
2019-03-02T12:29:00.204Z,225
2019-03-02T12:30:00.787Z,210
2019-03-02T12:31:01.469Z,215
2019-03-02T12:32:03.952Z,225
2019-03-02T12:33:03.728Z,215
2019-03-02T12:34:04.308Z,200
2019-03-02T12:35:04.894Z,205
2019-03-02T12:36:05.523Z,205
2019-03-02T12:37:06.104Z,205
2019-03-02T12:38:07.259Z,220
2019-03-02T12:39:08.264Z,215
2019-03-02T12:40:08.844Z,220
2019-03-02T12:41:12.065Z,195
2019-03-02T12:42:11.004Z,185
2019-03-02T12:43:11.626Z,195
2019-03-02T12:44:12.206Z,225
2019-03-02T12:45:12.789Z,210
2019-03-02T12:46:16.765Z,215
2019-03-02T12:47:15.046Z,210
2019-03-02T12:48:15.629Z,205
2019-03-02T12:49:16.262Z,225
2019-03-02T12:50:18.967Z,245
2019-03-02T12:51:18.423Z,260
2019-03-02T12:52:19.004Z,220
2019-03-02T12:53:19.589Z,200
2019-03-02T12:54:20.218Z,195
2019-03-02T12:55:21.820Z,195
2019-03-02T12:56:22.376Z,190
2019-03-02T12:57:22.957Z,185
2019-03-02T12:58:24.166Z,205
2019-03-02T12:59:24.713Z,230
2019-03-02T13:00:25.302Z,215
2019-03-02T13:01:25.881Z,220
2019-03-02T13:02:26.465Z,260
2019-03-02T13:03:27.276Z,275
2019-03-02T13:04:28.822Z,285
2019-03-02T13:05:29.408Z,275
2019-03-02T13:06:32.208Z,275
2019-03-02T13:07:31.767Z,275
2019-03-02T13:08:34.704Z,290
2019-03-02T13:09:36.852Z,300
2019-03-02T13:10:35.507Z,280
2019-03-02T13:11:36.090Z,260
2019-03-02T13:12:39.102Z,240
2019-03-02T13:13:38.244Z,225
2019-03-02T13:14:39.014Z,185
2019-03-02T13:15:42.184Z,180
2019-03-02T13:16:41.137Z,195
2019-03-02T13:17:41.717Z,190
2019-03-02T13:18:42.299Z,195
2019-03-02T13:19:42.882Z,215
2019-03-02T13:20:43.462Z,215
2019-03-02T13:21:44.053Z,205
2019-03-02T13:22:44.628Z,210
2019-03-02T13:23:45.208Z,200
2019-03-02T13:24:45.790Z,180
2019-03-02T13:25:46.423Z,170
2019-03-02T13:26:48.849Z,165
2019-03-02T13:27:48.632Z,160
2019-03-02T13:28:49.219Z,150
2019-03-02T13:29:53.329Z,145
2019-03-02T13:30:51.423Z,140
2019-03-02T13:31:52.007Z,130
2019-03-02T13:32:55.903Z,130
2019-03-02T13:33:54.165Z,125
2019-03-02T13:34:54.748Z,120
2019-03-02T13:36:00.253Z,130
2019-03-02T13:36:56.905Z,140
2019-03-02T13:37:58.526Z,110
2019-03-02T13:38:59.063Z,120
2019-03-02T13:39:59.646Z,125
2019-03-02T13:41:00.230Z,130
2019-03-02T13:42:00.860Z,130
2019-03-02T13:43:04.662Z,130
2019-03-02T13:44:05.872Z,135
2019-03-02T13:45:04.645Z,140
2019-03-02T13:46:05.227Z,150
2019-03-02T13:47:07.046Z,150
2019-03-02T13:48:07.386Z,155
2019-03-02T13:49:07.970Z,165
2019-03-02T13:50:10.107Z,170
2019-03-02T13:51:10.215Z,175
2019-03-02T13:52:10.796Z,185
2019-03-02T13:53:11.382Z,190
2019-03-02T13:54:12.008Z,205
2019-03-02T13:55:13.555Z,215
2019-03-02T13:56:14.121Z,235
2019-03-02T13:57:14.697Z,255
2019-03-02T13:58:18.024Z,300
2019-03-02T13:59:16.854Z,275
2019-03-02T14:00:17.442Z,320
2019-03-02T14:01:21.302Z,305
2019-03-02T14:02:19.597Z,290
2019-03-02T14:03:20.178Z,310
2019-03-02T14:04:20.761Z,270
2019-03-02T14:05:21.345Z,390
2019-03-02T14:06:21.926Z,370
2019-03-02T14:07:22.508Z,360
2019-03-02T14:08:23.090Z,355
2019-03-02T14:09:23.674Z,390
2019-03-02T14:10:25.142Z,380
2019-03-02T14:11:25.700Z,415
2019-03-02T14:12:26.283Z,455
2019-03-02T14:13:27.185Z,340
2019-03-02T14:14:28.447Z,410
2019-03-02T14:15:29.071Z,370
2019-03-02T14:16:32.201Z,505
2019-03-02T14:17:32.395Z,520
2019-03-02T14:18:32.809Z,520
2019-03-02T14:19:33.396Z,540
2019-03-02T14:20:34.129Z,410
2019-03-02T14:21:38.524Z,330
2019-03-02T14:26:56.933Z,380
2019-03-02T14:29:56.840Z,340
2019-03-02T14:31:00.740Z,265
2019-03-02T14:31:59.051Z,315
2019-03-02T14:32:59.635Z,150
2019-03-02T14:34:03.024Z,145
2019-03-02T14:35:01.797Z,270
2019-03-02T14:36:02.419Z,370
2019-03-02T14:37:03.004Z,220
2019-03-02T14:38:03.585Z,250
2019-03-02T14:39:04.221Z,720
2019-03-02T14:40:04.805Z,330
2019-03-02T14:41:05.391Z,280
2019-03-02T14:42:07.817Z,150
2019-03-02T14:43:06.596Z,205
2019-03-02T14:44:07.179Z,1150
2019-03-02T14:45:09.728Z,450
2019-03-02T14:46:09.385Z,960